createdAt,value
2017-03-29T00:01:03.613Z,0
2017-03-29T00:02:13.534Z,0
2017-03-29T00:03:23.777Z,0
2017-03-29T00:04:34.365Z,0
2017-03-29T00:05:43.667Z,0
2017-03-29T00:06:53.571Z,0
2017-03-29T00:08:03.799Z,0
2017-03-29T00:09:13.713Z,0
2017-03-29T00:10:24.226Z,0
2017-03-29T00:11:34.151Z,0
2017-03-29T00:12:44.375Z,0
2017-03-29T00:13:54.284Z,0
2017-03-29T00:15:04.202Z,0
2017-03-29T00:16:14.521Z,0
2017-03-29T00:17:24.733Z,0
2017-03-29T00:18:34.337Z,0
2017-03-29T00:19:44.575Z,0
2017-03-29T00:20:54.483Z,0
2017-03-29T00:22:05.149Z,0
2017-03-29T00:23:14.752Z,0
2017-03-29T00:24:24.351Z,0
2017-03-29T00:25:33.966Z,0
2017-03-29T00:26:44.173Z,0
2017-03-29T00:27:54.794Z,0
2017-03-29T00:29:04.399Z,0
2017-03-29T00:30:14.300Z,0
2017-03-29T00:31:24.205Z,0
2017-03-29T00:32:33.809Z,0
2017-03-29T00:33:44.417Z,0
2017-03-29T00:34:54.329Z,0
2017-03-29T00:36:04.233Z,0
2017-03-29T00:37:14.138Z,0
2017-03-29T00:38:24.041Z,0
2017-03-29T00:39:33.790Z,0
2017-03-29T00:40:43.708Z,0
2017-03-29T00:41:53.633Z,0
2017-03-29T00:43:03.863Z,0
2017-03-29T00:44:13.774Z,0
2017-03-29T00:45:23.990Z,0
2017-03-29T00:46:33.934Z,0
2017-03-29T00:47:43.844Z,0
2017-03-29T00:48:53.769Z,0
2017-03-29T00:50:03.981Z,0
2017-03-29T00:51:13.740Z,0
2017-03-29T00:52:23.658Z,0
2017-03-29T00:53:33.260Z,0
2017-03-29T00:54:43.182Z,0
2017-03-29T00:55:53.098Z,0
2017-03-29T00:57:03.368Z,0
2017-03-29T00:58:13.596Z,0
2017-03-29T00:59:23.523Z,0
2017-03-29T01:00:33.128Z,0
2017-03-29T01:01:43.342Z,0
2017-03-29T01:02:53.550Z,0
2017-03-29T01:04:03.757Z,0
2017-03-29T01:05:13.668Z,0
2017-03-29T01:06:23.596Z,0
2017-03-29T01:07:33.519Z,0
2017-03-29T01:08:43.025Z,0
2017-03-29T01:09:52.931Z,0
2017-03-29T01:11:03.145Z,0
2017-03-29T01:12:13.377Z,0
2017-03-29T01:13:23.299Z,0
2017-03-29T01:14:33.671Z,0
2017-03-29T01:15:43.581Z,0
2017-03-29T01:16:53.788Z,0
2017-03-29T01:18:03.117Z,0
2017-03-29T01:19:13.035Z,0
2017-03-29T01:20:23.510Z,0
2017-03-29T01:21:33.745Z,0
2017-03-29T01:22:43.965Z,0
2017-03-29T01:23:53.585Z,0
2017-03-29T01:25:03.188Z,0
2017-03-29T01:26:13.448Z,0
2017-03-29T01:27:23.667Z,0
2017-03-29T01:28:33.896Z,0
2017-03-29T01:29:43.808Z,0
2017-03-29T01:30:53.714Z,0
2017-03-29T01:32:03.266Z,0
2017-03-29T01:33:13.474Z,0
2017-03-29T01:34:22.480Z,0
2017-03-29T01:35:32.698Z,0
2017-03-29T01:36:42.919Z,0
2017-03-29T01:37:53.135Z,0
2017-03-29T01:39:03.352Z,0
2017-03-29T01:40:13.310Z,0
2017-03-29T01:41:23.532Z,0
2017-03-29T01:42:33.431Z,0
2017-03-29T01:43:44.042Z,0
2017-03-29T01:44:54.258Z,0
2017-03-29T01:46:04.202Z,0
2017-03-29T01:47:13.504Z,0
2017-03-29T01:48:23.718Z,0
2017-03-29T01:49:33.468Z,0
2017-03-29T01:50:43.370Z,0
2017-03-29T01:52:25.367Z,0
2017-03-29T01:53:35.572Z,0
2017-03-29T01:54:45.630Z,0
2017-03-29T01:55:55.847Z,0
2017-03-29T01:57:05.197Z,0
2017-03-29T01:58:15.112Z,0
2017-03-29T01:59:25.027Z,0
2017-03-29T02:00:34.772Z,0
2017-03-29T02:01:44.987Z,0
2017-03-29T02:02:54.588Z,0
2017-03-29T02:04:04.810Z,0
2017-03-29T02:05:15.027Z,0
2017-03-29T02:06:25.399Z,0
2017-03-29T02:07:34.706Z,0
2017-03-29T02:08:44.615Z,0
2017-03-29T02:09:54.825Z,0
2017-03-29T02:11:05.048Z,0
2017-03-29T02:12:15.408Z,0
2017-03-29T02:13:25.010Z,0
2017-03-29T02:14:34.909Z,0
2017-03-29T02:15:44.503Z,0
2017-03-29T02:16:54.427Z,0
2017-03-29T02:18:04.522Z,0
2017-03-29T02:19:14.119Z,0
2017-03-29T02:20:24.023Z,0
2017-03-29T02:21:33.637Z,0
2017-03-29T02:22:43.547Z,0
2017-03-29T02:23:53.908Z,0
2017-03-29T02:25:03.817Z,0
2017-03-29T02:26:13.112Z,0
2017-03-29T02:27:22.714Z,0
2017-03-29T02:28:32.930Z,0
2017-03-29T02:29:42.994Z,0
2017-03-29T02:30:53.217Z,0
2017-03-29T02:32:03.436Z,0
2017-03-29T02:33:13.357Z,0
2017-03-29T02:34:23.259Z,0
2017-03-29T02:35:33.016Z,0
2017-03-29T02:36:43.235Z,0
2017-03-29T02:37:53.143Z,0
2017-03-29T02:39:02.744Z,0
2017-03-29T02:40:12.049Z,0
2017-03-29T02:41:22.128Z,0
2017-03-29T02:42:31.725Z,0
2017-03-29T02:43:41.320Z,0
2017-03-29T02:44:51.570Z,0
2017-03-29T02:46:01.476Z,0
2017-03-29T02:47:11.504Z,0
2017-03-29T02:48:21.110Z,0
2017-03-29T02:49:30.714Z,0
2017-03-29T02:50:40.623Z,0
2017-03-29T02:51:50.851Z,0
2017-03-29T02:53:00.541Z,0
2017-03-29T02:54:10.762Z,0
2017-03-29T02:55:20.982Z,0
2017-03-29T02:56:30.898Z,0
2017-03-29T02:57:41.111Z,0
2017-03-29T02:58:51.131Z,0
2017-03-29T03:00:00.450Z,0
2017-03-29T03:01:10.064Z,0
2017-03-29T03:02:19.969Z,0
2017-03-29T03:03:29.865Z,0
2017-03-29T03:04:39.887Z,0
2017-03-29T03:05:50.110Z,0
2017-03-29T03:07:00.323Z,0
2017-03-29T03:08:10.537Z,0
2017-03-29T03:09:20.756Z,0
2017-03-29T03:10:30.814Z,0
2017-03-29T03:11:40.746Z,0
2017-03-29T03:12:50.649Z,0
2017-03-29T03:14:00.849Z,0
2017-03-29T03:15:10.143Z,0
2017-03-29T03:16:20.514Z,0
2017-03-29T03:17:30.726Z,0
2017-03-29T03:18:40.962Z,0
2017-03-29T03:19:51.176Z,0
2017-03-29T03:21:01.403Z,0
2017-03-29T03:22:10.857Z,0
2017-03-29T03:23:21.069Z,0
2017-03-29T03:24:30.671Z,0
2017-03-29T03:25:40.577Z,0
2017-03-29T03:26:50.812Z,0
2017-03-29T03:28:00.895Z,0
2017-03-29T03:29:10.514Z,0
2017-03-29T03:30:20.422Z,0
2017-03-29T03:31:30.635Z,0
2017-03-29T03:32:40.555Z,0
2017-03-29T03:33:51.136Z,0
2017-03-29T03:35:00.736Z,0
2017-03-29T03:36:10.955Z,0
2017-03-29T03:37:20.266Z,0
2017-03-29T03:38:30.482Z,0
2017-03-29T03:39:40.879Z,0
2017-03-29T03:40:51.103Z,0
2017-03-29T03:42:01.324Z,0
2017-03-29T03:43:11.546Z,0
2017-03-29T03:44:21.454Z,0
2017-03-29T03:45:31.569Z,0
2017-03-29T03:46:41.464Z,0
2017-03-29T03:47:51.375Z,0
2017-03-29T03:49:00.987Z,0
2017-03-29T03:50:11.210Z,0
2017-03-29T03:51:20.991Z,0
2017-03-29T03:52:30.897Z,0
2017-03-29T03:53:41.126Z,0
2017-03-29T03:54:51.048Z,0
2017-03-29T03:56:01.262Z,0
2017-03-29T03:57:11.648Z,0
2017-03-29T03:58:21.872Z,0
2017-03-29T03:59:31.777Z,0
2017-03-29T04:00:41.380Z,0
2017-03-29T04:01:50.681Z,0
2017-03-29T04:03:00.725Z,0
2017-03-29T04:04:10.939Z,0
2017-03-29T04:05:20.855Z,0
2017-03-29T04:06:31.067Z,0
2017-03-29T04:07:41.299Z,0
2017-03-29T04:08:51.383Z,0
2017-03-29T04:10:01.605Z,0
2017-03-29T04:11:11.221Z,0
2017-03-29T04:12:21.461Z,0
2017-03-29T04:13:31.378Z,0
2017-03-29T04:14:41.750Z,0
2017-03-29T04:15:51.959Z,0
2017-03-29T04:17:01.249Z,0
2017-03-29T04:18:11.150Z,0
2017-03-29T04:19:21.057Z,0
2017-03-29T04:20:31.111Z,0
2017-03-29T04:21:41.009Z,0
2017-03-29T04:22:50.618Z,0
2017-03-29T04:24:00.836Z,0
2017-03-29T04:25:11.121Z,0
2017-03-29T04:26:21.703Z,0
2017-03-29T04:27:31.615Z,0
2017-03-29T04:28:41.570Z,0
2017-03-29T04:29:51.534Z,0
2017-03-29T04:31:01.775Z,0
2017-03-29T04:32:11.837Z,0
2017-03-29T04:33:21.783Z,0
2017-03-29T04:34:32.014Z,0
2017-03-29T04:35:41.630Z,0
2017-03-29T04:36:51.848Z,0
2017-03-29T04:38:02.225Z,0
2017-03-29T04:39:11.843Z,0
2017-03-29T04:40:22.065Z,0
2017-03-29T04:41:31.974Z,0
2017-03-29T04:42:42.235Z,0
2017-03-29T04:43:52.291Z,0
2017-03-29T04:45:02.210Z,0
2017-03-29T04:46:12.131Z,0
2017-03-29T04:47:21.759Z,0
2017-03-29T04:48:31.109Z,0
2017-03-29T04:49:40.825Z,0
2017-03-29T04:50:50.754Z,0
2017-03-29T04:52:00.982Z,0
2017-03-29T04:53:10.294Z,0
2017-03-29T04:54:20.215Z,0
2017-03-29T04:55:30.231Z,0
2017-03-29T04:56:40.466Z,0
2017-03-29T04:57:49.777Z,0
2017-03-29T04:58:59.711Z,0
2017-03-29T05:00:09.962Z,0
2017-03-29T05:01:19.379Z,0
2017-03-29T05:02:29.615Z,0
2017-03-29T05:03:39.520Z,0
2017-03-29T05:04:48.822Z,0
2017-03-29T05:05:58.734Z,0
2017-03-29T05:07:08.457Z,0
2017-03-29T05:08:18.368Z,0
2017-03-29T05:09:28.580Z,0
2017-03-29T05:10:38.821Z,0
2017-03-29T05:11:49.048Z,0
2017-03-29T05:12:59.576Z,0
2017-03-29T05:14:09.478Z,0
2017-03-29T05:15:19.708Z,0
2017-03-29T05:16:29.329Z,0
2017-03-29T05:17:39.544Z,0
2017-03-29T05:18:49.012Z,0
2017-03-29T05:19:58.929Z,0
2017-03-29T05:21:08.543Z,0
2017-03-29T05:22:18.799Z,0
2017-03-29T05:23:28.726Z,0
2017-03-29T05:24:38.768Z,0
2017-03-29T05:25:48.373Z,0
2017-03-29T05:26:57.958Z,5
2017-03-29T05:28:06.953Z,5
2017-03-29T05:29:17.221Z,5
2017-03-29T05:30:27.277Z,5
2017-03-29T05:31:37.178Z,5
2017-03-29T05:32:47.392Z,5
2017-03-29T05:33:57.292Z,5
2017-03-29T05:35:06.584Z,5
2017-03-29T05:36:16.940Z,5
2017-03-29T05:37:26.232Z,5
2017-03-29T05:38:36.150Z,5
2017-03-29T05:39:46.067Z,5
2017-03-29T05:40:56.277Z,5
2017-03-29T05:42:07.002Z,5
2017-03-29T05:43:16.601Z,5
2017-03-29T05:44:26.815Z,10
2017-03-29T05:45:36.417Z,10
2017-03-29T05:46:46.362Z,10
2017-03-29T05:47:56.438Z,10
2017-03-29T05:49:06.025Z,10
2017-03-29T05:50:15.621Z,15
2017-03-29T05:51:25.848Z,15
2017-03-29T05:52:35.759Z,15
2017-03-29T05:53:45.823Z,15
2017-03-29T05:54:55.762Z,15
2017-03-29T05:56:05.673Z,15
2017-03-29T05:57:15.895Z,15
2017-03-29T05:58:26.121Z,20
2017-03-29T05:59:36.182Z,20
2017-03-29T06:00:45.781Z,20
2017-03-29T06:01:55.683Z,20
2017-03-29T06:03:05.907Z,20
2017-03-29T06:04:16.133Z,20
2017-03-29T06:05:26.205Z,20
2017-03-29T06:06:36.107Z,20
2017-03-29T06:07:45.695Z,15
2017-03-29T06:08:55.595Z,15
2017-03-29T06:10:04.580Z,20
2017-03-29T06:11:14.663Z,20
2017-03-29T06:12:24.569Z,20
2017-03-29T06:13:34.476Z,20
2017-03-29T06:14:44.384Z,25
2017-03-29T06:15:53.997Z,25
2017-03-29T06:17:04.354Z,20
2017-03-29T06:18:14.276Z,25
2017-03-29T06:19:24.492Z,25
2017-03-29T06:20:34.722Z,25
2017-03-29T06:21:44.692Z,25
2017-03-29T06:22:54.758Z,25
2017-03-29T06:24:04.661Z,25
2017-03-29T06:25:14.584Z,25
2017-03-29T06:26:23.876Z,25
2017-03-29T06:27:33.472Z,25
2017-03-29T06:28:43.528Z,25
2017-03-29T06:29:53.128Z,25
2017-03-29T06:31:03.035Z,30
2017-03-29T06:32:12.951Z,30
2017-03-29T06:33:22.853Z,30
2017-03-29T06:34:33.210Z,30
2017-03-29T06:35:43.415Z,30
2017-03-29T06:36:52.709Z,25
2017-03-29T06:38:02.322Z,30
2017-03-29T06:39:12.549Z,30
2017-03-29T06:40:22.919Z,30
2017-03-29T06:41:33.144Z,30
2017-03-29T06:42:43.055Z,30
2017-03-29T06:43:52.646Z,30
2017-03-29T06:45:02.859Z,30
2017-03-29T06:46:12.609Z,30
2017-03-29T06:47:22.225Z,30
2017-03-29T06:48:32.441Z,35
2017-03-29T06:49:42.368Z,40
2017-03-29T06:50:51.671Z,35
2017-03-29T06:52:01.687Z,35
2017-03-29T06:53:11.608Z,30
2017-03-29T06:54:21.514Z,30
2017-03-29T06:55:31.419Z,35
2017-03-29T06:56:41.327Z,35
2017-03-29T06:57:51.338Z,40
2017-03-29T06:59:00.932Z,60
2017-03-29T07:00:10.231Z,75
2017-03-29T07:01:19.836Z,70
2017-03-29T07:02:30.058Z,70
2017-03-29T07:03:39.500Z,65
2017-03-29T07:04:49.689Z,55
2017-03-29T07:05:59.665Z,50
2017-03-29T07:07:09.582Z,40
2017-03-29T07:08:19.530Z,35
2017-03-29T07:09:29.564Z,35
2017-03-29T07:10:38.869Z,40
2017-03-29T07:11:49.098Z,40
2017-03-29T07:12:59.056Z,40
2017-03-29T07:14:08.964Z,40
2017-03-29T07:15:18.980Z,40
2017-03-29T07:16:28.607Z,45
2017-03-29T07:17:38.273Z,55
2017-03-29T07:18:47.880Z,55
2017-03-29T07:19:57.794Z,55
2017-03-29T07:21:07.847Z,50
2017-03-29T07:22:18.063Z,40
2017-03-29T07:23:27.977Z,35
2017-03-29T07:24:37.582Z,40
2017-03-29T07:25:47.198Z,50
2017-03-29T07:26:57.574Z,55
2017-03-29T07:28:07.485Z,60
2017-03-29T07:29:17.400Z,70
2017-03-29T07:30:27.621Z,80
2017-03-29T07:31:37.541Z,85
2017-03-29T07:32:47.910Z,85
2017-03-29T07:33:57.511Z,80
2017-03-29T07:35:07.733Z,80
2017-03-29T07:36:17.955Z,80
2017-03-29T07:37:28.172Z,75
2017-03-29T07:38:37.921Z,60
2017-03-29T07:39:48.149Z,50
2017-03-29T07:40:58.064Z,50
2017-03-29T07:42:07.985Z,50
2017-03-29T07:43:18.232Z,45
2017-03-29T07:44:28.597Z,45
2017-03-29T07:45:38.521Z,45
2017-03-29T07:46:48.125Z,50
2017-03-29T07:47:58.068Z,45
2017-03-29T07:49:08.295Z,50
2017-03-29T07:50:17.442Z,50
2017-03-29T07:51:27.655Z,45
2017-03-29T07:52:37.892Z,40
2017-03-29T07:53:48.107Z,50
2017-03-29T07:54:58.340Z,65
2017-03-29T07:56:08.294Z,85
2017-03-29T07:57:18.510Z,90
2017-03-29T07:58:28.720Z,80
2017-03-29T07:59:38.620Z,75
2017-03-29T08:00:48.239Z,65
2017-03-29T08:01:58.491Z,65
2017-03-29T08:03:08.414Z,65
2017-03-29T08:04:18.326Z,60
2017-03-29T08:05:27.935Z,60
2017-03-29T08:06:38.133Z,65
2017-03-29T08:07:48.172Z,70
2017-03-29T08:08:58.070Z,70
2017-03-29T08:10:07.970Z,70
2017-03-29T08:11:17.875Z,70
2017-03-29T08:12:27.476Z,85
2017-03-29T08:13:37.232Z,80
2017-03-29T08:14:47.149Z,65
2017-03-29T08:15:56.756Z,65
2017-03-29T08:17:06.675Z,65
2017-03-29T08:18:16.976Z,70
2017-03-29T08:19:27.420Z,85
2017-03-29T08:20:37.333Z,90
2017-03-29T08:21:47.303Z,90
2017-03-29T08:22:57.215Z,95
2017-03-29T08:24:07.124Z,95
2017-03-29T08:25:17.504Z,90
2017-03-29T08:26:26.831Z,90
2017-03-29T08:27:37.051Z,95
2017-03-29T08:28:46.957Z,95
2017-03-29T08:29:56.869Z,85
2017-03-29T08:31:06.328Z,80
2017-03-29T08:32:16.557Z,75
2017-03-29T08:33:26.472Z,70
2017-03-29T08:34:36.384Z,75
2017-03-29T08:35:46.609Z,80
2017-03-29T08:36:57.001Z,75
2017-03-29T08:38:07.246Z,60
2017-03-29T08:39:17.472Z,55
2017-03-29T08:40:27.392Z,55
2017-03-29T08:41:37.611Z,55
2017-03-29T08:42:47.677Z,55
2017-03-29T08:43:57.591Z,55
2017-03-29T08:45:07.212Z,55
2017-03-29T08:46:17.121Z,55
2017-03-29T08:47:27.038Z,55
2017-03-29T08:48:37.103Z,60
2017-03-29T08:49:46.752Z,70
2017-03-29T08:50:56.975Z,70
2017-03-29T08:52:06.582Z,70
2017-03-29T08:53:16.205Z,70
2017-03-29T08:54:26.214Z,75
2017-03-29T08:55:36.348Z,75
2017-03-29T08:56:46.300Z,80
2017-03-29T08:57:55.599Z,85
2017-03-29T08:59:05.222Z,90
2017-03-29T09:00:15.228Z,90
2017-03-29T09:01:25.480Z,90
2017-03-29T09:02:35.091Z,85
2017-03-29T09:03:45.005Z,80
2017-03-29T09:04:55.590Z,70
2017-03-29T09:06:05.629Z,65
2017-03-29T09:07:15.847Z,55
2017-03-29T09:08:26.057Z,60
2017-03-29T09:09:35.664Z,65
2017-03-29T09:10:45.266Z,65
2017-03-29T09:11:55.277Z,45
2017-03-29T09:13:05.190Z,45
2017-03-29T09:14:15.104Z,50
2017-03-29T09:15:24.710Z,50
2017-03-29T09:16:34.629Z,45
2017-03-29T09:17:44.662Z,45
2017-03-29T09:18:54.930Z,40
2017-03-29T09:20:04.892Z,45
2017-03-29T09:21:14.824Z,45
2017-03-29T09:22:24.738Z,40
2017-03-29T09:23:35.100Z,40
2017-03-29T09:24:45.008Z,40
2017-03-29T09:25:54.937Z,40
2017-03-29T09:27:04.858Z,40
2017-03-29T09:28:15.076Z,35
2017-03-29T09:29:25.132Z,35
2017-03-29T09:30:35.050Z,40
2017-03-29T09:31:45.292Z,35
2017-03-29T09:32:55.510Z,35
2017-03-29T09:34:05.758Z,40
2017-03-29T09:35:15.809Z,40
2017-03-29T09:36:25.415Z,40
2017-03-29T09:37:35.328Z,40
2017-03-29T09:38:45.549Z,40
2017-03-29T09:39:55.167Z,40
2017-03-29T09:41:05.545Z,40
2017-03-29T09:42:15.167Z,40
2017-03-29T09:43:25.080Z,40
2017-03-29T09:44:34.987Z,35
2017-03-29T09:45:44.937Z,35
2017-03-29T09:46:55.429Z,30
2017-03-29T09:48:05.342Z,30
2017-03-29T09:49:15.276Z,35
2017-03-29T09:50:24.879Z,35
2017-03-29T09:51:34.188Z,35
2017-03-29T09:52:43.997Z,35
2017-03-29T09:53:53.298Z,40
2017-03-29T09:55:02.919Z,40
2017-03-29T09:56:12.522Z,35
2017-03-29T09:57:22.446Z,35
2017-03-29T09:58:32.228Z,35
2017-03-29T09:59:42.454Z,40
2017-03-29T10:00:52.373Z,40
2017-03-29T10:02:02.291Z,40
2017-03-29T10:03:12.221Z,40
2017-03-29T10:04:21.989Z,40
2017-03-29T10:05:31.599Z,40
2017-03-29T10:06:40.926Z,35
2017-03-29T10:07:51.142Z,35
2017-03-29T10:09:00.745Z,30
2017-03-29T10:10:10.198Z,30
2017-03-29T10:11:20.148Z,30
2017-03-29T10:12:30.373Z,35
2017-03-29T10:13:39.669Z,35
2017-03-29T10:14:49.279Z,30
2017-03-29T10:15:59.055Z,30
2017-03-29T10:17:08.694Z,30
2017-03-29T10:18:18.629Z,30
2017-03-29T10:19:28.263Z,30
2017-03-29T10:20:37.876Z,30
2017-03-29T10:21:48.269Z,30
2017-03-29T10:22:58.181Z,30
2017-03-29T10:24:07.777Z,30
2017-03-29T10:25:17.709Z,30
2017-03-29T10:26:27.005Z,25
2017-03-29T10:27:36.763Z,25
2017-03-29T10:28:46.983Z,25
2017-03-29T10:29:56.590Z,25
2017-03-29T10:31:06.821Z,25
2017-03-29T10:32:16.807Z,30
2017-03-29T10:33:27.205Z,25
2017-03-29T10:34:36.210Z,20
2017-03-29T10:35:46.155Z,25
2017-03-29T10:36:56.102Z,20
2017-03-29T10:38:05.702Z,20
2017-03-29T10:39:15.746Z,15
2017-03-29T10:40:25.649Z,20
2017-03-29T10:41:35.564Z,20
2017-03-29T10:42:45.167Z,15
2017-03-29T10:43:54.762Z,15
2017-03-29T10:45:04.524Z,15
2017-03-29T10:46:14.129Z,15
2017-03-29T10:47:23.438Z,15
2017-03-29T10:48:33.643Z,15
2017-03-29T10:49:43.854Z,20
2017-03-29T10:50:54.181Z,20
2017-03-29T10:52:04.086Z,20
2017-03-29T10:53:14.333Z,20
2017-03-29T10:54:23.641Z,20
2017-03-29T10:55:33.568Z,20
2017-03-29T10:56:43.589Z,25
2017-03-29T10:57:53.818Z,25
2017-03-29T10:59:03.425Z,35
2017-03-29T11:00:13.348Z,20
2017-03-29T11:01:23.604Z,25
2017-03-29T11:02:33.309Z,30
2017-03-29T11:03:43.230Z,30
2017-03-29T11:04:53.445Z,30
2017-03-29T11:06:03.050Z,35
2017-03-29T11:07:12.665Z,45
2017-03-29T11:08:22.699Z,60
2017-03-29T11:09:32.656Z,60
2017-03-29T11:10:41.966Z,50
2017-03-29T11:11:51.262Z,55
2017-03-29T11:13:00.561Z,60
2017-03-29T11:14:10.262Z,60
2017-03-29T11:15:19.864Z,50
2017-03-29T11:16:30.082Z,40
2017-03-29T11:17:39.691Z,30
2017-03-29T11:18:49.313Z,30
2017-03-29T11:19:58.722Z,25
2017-03-29T11:21:08.658Z,30
2017-03-29T11:22:18.568Z,35
2017-03-29T11:23:28.777Z,35
2017-03-29T11:24:38.691Z,30
2017-03-29T11:25:49.055Z,35
2017-03-29T11:26:58.353Z,40
2017-03-29T11:28:07.997Z,40
2017-03-29T11:29:18.218Z,35
2017-03-29T11:30:27.818Z,45
2017-03-29T11:31:38.187Z,50
2017-03-29T11:32:48.406Z,40
2017-03-29T11:33:57.714Z,40
2017-03-29T11:35:07.677Z,35
2017-03-29T11:36:17.296Z,35
2017-03-29T11:37:27.365Z,25
2017-03-29T11:38:37.577Z,25
2017-03-29T11:39:47.536Z,25
2017-03-29T11:40:57.445Z,30
2017-03-29T11:42:07.656Z,25
2017-03-29T11:43:18.036Z,30
2017-03-29T11:44:28.647Z,30
2017-03-29T11:45:38.876Z,40
2017-03-29T11:46:49.096Z,40
2017-03-29T11:47:59.027Z,45
2017-03-29T11:49:09.109Z,55
2017-03-29T11:50:18.726Z,50
2017-03-29T11:51:28.647Z,55
2017-03-29T11:52:38.563Z,60
2017-03-29T11:53:48.165Z,55
2017-03-29T11:54:57.916Z,50
2017-03-29T11:56:07.533Z,55
2017-03-29T11:57:17.458Z,60
2017-03-29T11:58:27.666Z,50
2017-03-29T11:59:37.868Z,45
2017-03-29T12:00:47.955Z,45
2017-03-29T12:01:57.892Z,40
2017-03-29T12:03:07.807Z,50
2017-03-29T12:04:17.728Z,55
2017-03-29T12:05:27.669Z,60
2017-03-29T12:06:37.751Z,60
2017-03-29T12:07:47.669Z,60
2017-03-29T12:08:57.885Z,60
2017-03-29T12:10:07.167Z,60
2017-03-29T12:11:17.084Z,55
2017-03-29T12:12:26.841Z,55
2017-03-29T12:13:36.810Z,55
2017-03-29T12:14:46.750Z,55
2017-03-29T12:15:56.974Z,50
2017-03-29T12:17:07.214Z,45
2017-03-29T12:18:17.276Z,40
2017-03-29T12:19:27.198Z,30
2017-03-29T12:20:37.122Z,50
2017-03-29T12:21:46.743Z,60
2017-03-29T12:22:56.660Z,50
2017-03-29T12:24:06.139Z,50
2017-03-29T12:25:15.740Z,50
2017-03-29T12:26:25.960Z,60
2017-03-29T12:27:35.871Z,60
2017-03-29T12:28:45.793Z,60
2017-03-29T12:29:56.173Z,60
2017-03-29T12:31:06.385Z,60
2017-03-29T12:32:16.600Z,60
2017-03-29T12:33:26.502Z,60
2017-03-29T12:34:36.417Z,55
2017-03-29T12:35:46.516Z,50
2017-03-29T12:36:56.432Z,50
2017-03-29T12:38:05.436Z,50
2017-03-29T12:39:15.353Z,55
2017-03-29T12:40:24.961Z,60
2017-03-29T12:41:35.035Z,55
2017-03-29T12:42:44.994Z,50
2017-03-29T12:43:54.606Z,55
2017-03-29T12:45:04.534Z,50
2017-03-29T12:46:14.143Z,50
2017-03-29T12:47:23.888Z,60
2017-03-29T12:48:33.485Z,60
2017-03-29T12:49:43.723Z,60
2017-03-29T12:50:53.372Z,60
2017-03-29T12:52:03.592Z,55
2017-03-29T12:53:13.607Z,50
2017-03-29T12:54:23.814Z,40
2017-03-29T12:55:33.736Z,40
2017-03-29T12:56:43.965Z,40
2017-03-29T12:57:54.208Z,35
2017-03-29T12:59:04.247Z,40
2017-03-29T13:00:13.852Z,50
2017-03-29T13:01:23.774Z,50
2017-03-29T13:02:33.685Z,50
2017-03-29T13:03:43.290Z,45
2017-03-29T13:04:53.292Z,40
2017-03-29T13:06:03.519Z,40
2017-03-29T13:07:13.128Z,40
2017-03-29T13:08:22.754Z,40
2017-03-29T13:09:33.049Z,45
2017-03-29T13:10:43.055Z,40
2017-03-29T13:11:52.354Z,35
2017-03-29T13:13:02.264Z,45
2017-03-29T13:14:12.469Z,45
2017-03-29T13:15:22.398Z,40
2017-03-29T13:16:31.854Z,40
2017-03-29T13:17:41.770Z,40
2017-03-29T13:18:51.375Z,40
2017-03-29T13:20:01.606Z,45
2017-03-29T13:21:10.951Z,40
2017-03-29T13:22:20.733Z,40
2017-03-29T13:23:30.649Z,45
2017-03-29T13:24:40.565Z,50
2017-03-29T13:25:50.505Z,40
2017-03-29T13:27:00.448Z,35
2017-03-29T13:28:10.232Z,35
2017-03-29T13:29:20.159Z,35
2017-03-29T13:30:30.180Z,30
2017-03-29T13:31:39.509Z,35
2017-03-29T13:32:49.426Z,35
2017-03-29T13:33:59.223Z,35
2017-03-29T13:35:09.445Z,30
2017-03-29T13:36:19.359Z,30
2017-03-29T13:37:29.589Z,35
2017-03-29T13:38:39.814Z,45
2017-03-29T13:39:49.894Z,40
2017-03-29T13:41:00.092Z,40
2017-03-29T13:42:09.462Z,40
2017-03-29T13:43:19.233Z,35
2017-03-29T13:44:29.453Z,35
2017-03-29T13:45:39.250Z,40
2017-03-29T13:46:48.892Z,40
2017-03-29T13:47:58.810Z,35
2017-03-29T13:49:08.817Z,35
2017-03-29T13:50:19.065Z,35
2017-03-29T13:51:29.451Z,35
2017-03-29T13:52:38.442Z,35
2017-03-29T13:53:48.386Z,35
2017-03-29T13:54:57.682Z,40
2017-03-29T13:56:07.620Z,35
2017-03-29T13:57:17.674Z,30
2017-03-29T13:58:27.594Z,35
2017-03-29T13:59:37.542Z,35
2017-03-29T14:00:47.187Z,35
2017-03-29T14:01:57.272Z,35
2017-03-29T14:03:07.340Z,30
2017-03-29T14:04:17.262Z,25
2017-03-29T14:05:27.181Z,25
2017-03-29T14:06:36.545Z,35
2017-03-29T14:07:46.156Z,30
2017-03-29T14:08:56.375Z,30
2017-03-29T14:10:06.303Z,30
2017-03-29T14:11:16.555Z,30
2017-03-29T14:12:26.169Z,25
2017-03-29T14:13:36.403Z,20
2017-03-29T14:14:46.173Z,15
2017-03-29T14:15:56.623Z,10
2017-03-29T14:17:05.925Z,10
2017-03-29T14:18:15.530Z,15
2017-03-29T14:19:25.430Z,15
2017-03-29T14:20:35.490Z,20
2017-03-29T14:21:44.797Z,25
2017-03-29T14:22:54.713Z,25
2017-03-29T14:24:04.336Z,25
2017-03-29T14:25:14.266Z,20
2017-03-29T14:26:24.346Z,20
2017-03-29T14:27:33.960Z,20
2017-03-29T14:28:43.875Z,20
2017-03-29T14:29:53.480Z,20
2017-03-29T14:31:03.401Z,25
2017-03-29T14:32:13.464Z,30
2017-03-29T14:33:23.072Z,35
2017-03-29T14:34:32.989Z,40
2017-03-29T14:35:42.600Z,40
2017-03-29T14:36:52.612Z,35
2017-03-29T14:38:02.687Z,35
2017-03-29T14:39:12.927Z,35
2017-03-29T14:40:22.866Z,35
2017-03-29T14:41:32.479Z,35
2017-03-29T14:42:42.736Z,35
2017-03-29T14:43:52.503Z,35
2017-03-29T14:45:01.818Z,35
2017-03-29T14:46:11.808Z,35
2017-03-29T14:47:22.035Z,35
2017-03-29T14:48:31.954Z,35
2017-03-29T14:49:41.773Z,35
2017-03-29T14:50:52.037Z,35
2017-03-29T14:52:01.648Z,35
2017-03-29T14:53:11.877Z,35
2017-03-29T14:54:21.808Z,35
2017-03-29T14:55:31.891Z,30
2017-03-29T14:56:41.811Z,30
2017-03-29T14:57:51.429Z,30
2017-03-29T14:59:00.726Z,30
2017-03-29T15:00:10.654Z,30
2017-03-29T15:01:20.411Z,30
2017-03-29T15:02:30.342Z,30
2017-03-29T15:03:39.640Z,30
2017-03-29T15:04:49.227Z,30
2017-03-29T15:05:59.159Z,30
2017-03-29T15:07:09.245Z,30
2017-03-29T15:08:19.165Z,30
2017-03-29T15:09:29.152Z,30
2017-03-29T15:10:38.825Z,30
2017-03-29T15:11:48.419Z,30
2017-03-29T15:12:58.634Z,30
2017-03-29T15:14:08.260Z,25
2017-03-29T15:15:18.213Z,25
2017-03-29T15:16:27.819Z,25
2017-03-29T15:17:37.919Z,25
2017-03-29T15:18:47.218Z,25
2017-03-29T15:19:56.859Z,25
2017-03-29T15:21:07.138Z,25
2017-03-29T15:22:17.095Z,25
2017-03-29T15:23:26.845Z,25
2017-03-29T15:24:36.745Z,25
2017-03-29T15:25:46.084Z,25
2017-03-29T15:26:55.983Z,25
2017-03-29T15:28:06.200Z,25
2017-03-29T15:29:16.275Z,25
2017-03-29T15:30:26.183Z,25
2017-03-29T15:31:36.089Z,20
2017-03-29T15:32:46.002Z,20
2017-03-29T15:33:55.918Z,20
2017-03-29T15:35:06.290Z,25
2017-03-29T15:36:15.586Z,25
2017-03-29T15:37:25.805Z,25
2017-03-29T15:38:35.399Z,25
2017-03-29T15:39:45.625Z,25
2017-03-29T15:40:55.374Z,25
2017-03-29T15:42:04.676Z,25
2017-03-29T15:43:14.282Z,25
2017-03-29T15:44:24.199Z,25
2017-03-29T15:45:33.877Z,25
2017-03-29T15:46:43.639Z,25
2017-03-29T15:47:53.247Z,25
2017-03-29T15:49:02.864Z,25
2017-03-29T15:50:12.793Z,25
2017-03-29T15:51:22.116Z,25
2017-03-29T15:52:32.164Z,25
2017-03-29T15:53:42.072Z,25
2017-03-29T15:54:52.318Z,20
2017-03-29T15:56:01.928Z,20
2017-03-29T15:57:11.585Z,20
2017-03-29T15:58:21.353Z,15
2017-03-29T15:59:31.566Z,15
2017-03-29T16:00:42.384Z,15
2017-03-29T16:01:52.538Z,15
2017-03-29T16:03:02.833Z,15
2017-03-29T16:04:12.592Z,10
2017-03-29T16:05:22.505Z,10
2017-03-29T16:06:32.767Z,10
2017-03-29T16:07:42.380Z,10
2017-03-29T16:08:52.038Z,10
2017-03-29T16:10:02.114Z,10
2017-03-29T16:11:12.149Z,10
2017-03-29T16:12:21.743Z,10
2017-03-29T16:13:32.339Z,10
2017-03-29T16:14:42.565Z,10
2017-03-29T16:15:52.310Z,10
2017-03-29T16:17:02.268Z,10
2017-03-29T16:18:12.199Z,10
2017-03-29T16:19:22.110Z,10
2017-03-29T16:20:31.772Z,5
2017-03-29T16:21:41.985Z,5
2017-03-29T16:22:52.529Z,5
2017-03-29T16:24:02.856Z,5
2017-03-29T16:25:13.007Z,5
2017-03-29T16:26:23.308Z,5
2017-03-29T16:27:33.708Z,10
2017-03-29T16:28:43.068Z,10
2017-03-29T16:29:53.378Z,10
2017-03-29T16:31:03.008Z,5
2017-03-29T16:32:13.267Z,5
2017-03-29T16:33:23.728Z,5
2017-03-29T16:34:33.982Z,5
2017-03-29T16:35:43.946Z,5
2017-03-29T16:36:53.882Z,5
2017-03-29T16:38:04.145Z,5
2017-03-29T16:39:13.916Z,0
2017-03-29T16:40:23.537Z,0
2017-03-29T16:41:33.163Z,0
2017-03-29T16:42:42.460Z,0
2017-03-29T16:43:52.072Z,0
2017-03-29T16:45:01.837Z,0
2017-03-29T16:46:11.444Z,0
2017-03-29T16:47:21.363Z,0
2017-03-29T16:48:31.587Z,0
2017-03-29T16:49:41.807Z,0
2017-03-29T16:50:51.868Z,0